Cornwall Bridge, Connecticut
Current Conditions -  °F | °C
As of 1:45 PM on Thursday 23 Oct 2014 (Local Time) from KOXC Reporting Station
Haze Haze  
Wind Chill: 43°   Ceiling: 1500
Heat Index: 48°   Visibility: 5mi
Dew Point: 43°   Wind: 12mph
Humidity: 82%   Direction: 350°N
Pressure: 29.68"   Gusts: 17mph
Location:  41.82°N, 73.37°W
Report Text: KOXC 231745Z 35010G15KT 5SM BR OVC015 09/06 A2968
Loading
Personal Weather Stations






























Interactive Weather Map New forecast layout! Learn more

10-Day Weather Forecast

Advertisements
Track Severe Weather on mobile